sensor_id;sensor_type;location;lat;lon;timestamp;P1;durP1;ratioP1;P2;durP2;ratioP2
17761;SDS011;9005;48.838;10.112;2023-04-25T00:00:53;0.98;;;0.90;;
17761;SDS011;9005;48.838;10.112;2023-04-25T00:03:21;2.08;;;1.45;;
17761;SDS011;9005;48.838;10.112;2023-04-25T00:05:50;1.20;;;0.95;;
17761;SDS011;9005;48.838;10.112;2023-04-25T00:08:18;2.00;;;1.80;;
17761;SDS011;9005;48.838;10.112;2023-04-25T00:10:46;1.60;;;1.05;;
17761;SDS011;9005;48.838;10.112;2023-04-25T00:13:13;1.98;;;1.08;;
17761;SDS011;9005;48.838;10.112;2023-04-25T00:15:42;2.08;;;0.80;;
17761;SDS011;9005;48.838;10.112;2023-04-25T00:18:11;1.02;;;0.95;;
17761;SDS011;9005;48.838;10.112;2023-04-25T00:20:38;1.00;;;0.80;;
17761;SDS011;9005;48.838;10.112;2023-04-25T00:23:05;0.77;;;0.73;;
17761;SDS011;9005;48.838;10.112;2023-04-25T00:25:34;0.90;;;0.88;;
17761;SDS011;9005;48.838;10.112;2023-04-25T00:28:01;2.65;;;0.95;;
17761;SDS011;9005;48.838;10.112;2023-04-25T00:30:28;1.05;;;0.88;;
17761;SDS011;9005;48.838;10.112;2023-04-25T00:32:55;0.93;;;0.80;;
17761;SDS011;9005;48.838;10.112;2023-04-25T00:35:22;2.70;;;0.93;;
17761;SDS011;9005;48.838;10.112;2023-04-25T00:37:49;2.10;;;1.05;;
17761;SDS011;9005;48.838;10.112;2023-04-25T00:40:16;2.15;;;1.20;;
17761;SDS011;9005;48.838;10.112;2023-04-25T00:42:44;2.83;;;1.63;;
17761;SDS011;9005;48.838;10.112;2023-04-25T00:45:12;2.35;;;2.15;;
17761;SDS011;9005;48.838;10.112;2023-04-25T00:47:40;3.60;;;1.20;;
17761;SDS011;9005;48.838;10.112;2023-04-25T00:50:07;1.63;;;1.33;;
17761;SDS011;9005;48.838;10.112;2023-04-25T00:52:34;3.35;;;1.15;;
17761;SDS011;9005;48.838;10.112;2023-04-25T00:55:02;1.65;;;1.00;;
17761;SDS011;9005;48.838;10.112;2023-04-25T00:57:30;1.13;;;0.90;;
17761;SDS011;9005;48.838;10.112;2023-04-25T00:59:58;0.88;;;0.70;;
17761;SDS011;9005;48.838;10.112;2023-04-25T01:02:25;0.70;;;0.70;;
17761;SDS011;9005;48.838;10.112;2023-04-25T01:04:53;0.90;;;0.90;;
17761;SDS011;9005;48.838;10.112;2023-04-25T01:07:20;1.20;;;1.10;;
17761;SDS011;9005;48.838;10.112;2023-04-25T01:09:47;3.17;;;1.95;;
17761;SDS011;9005;48.838;10.112;2023-04-25T01:12:14;1.45;;;1.17;;
17761;SDS011;9005;48.838;10.112;2023-04-25T01:14:41;5.68;;;1.48;;
17761;SDS011;9005;48.838;10.112;2023-04-25T01:17:10;0.85;;;0.80;;
17761;SDS011;9005;48.838;10.112;2023-04-25T01:19:38;1.00;;;0.95;;
17761;SDS011;9005;48.838;10.112;2023-04-25T01:22:06;1.40;;;1.30;;
17761;SDS011;9005;48.838;10.112;2023-04-25T01:24:35;1.25;;;1.02;;
17761;SDS011;9005;48.838;10.112;2023-04-25T01:27:02;2.15;;;1.33;;
17761;SDS011;9005;48.838;10.112;2023-04-25T01:29:30;2.00;;;1.08;;
17761;SDS011;9005;48.838;10.112;2023-04-25T01:31:58;1.17;;;1.08;;
17761;SDS011;9005;48.838;10.112;2023-04-25T01:34:25;1.45;;;1.27;;
17761;SDS011;9005;48.838;10.112;2023-04-25T01:36:53;1.55;;;1.17;;
17761;SDS011;9005;48.838;10.112;2023-04-25T01:39:21;1.60;;;1.00;;
17761;SDS011;9005;48.838;10.112;2023-04-25T01:41:48;2.15;;;0.80;;
17761;SDS011;9005;48.838;10.112;2023-04-25T01:44:15;0.85;;;0.70;;
17761;SDS011;9005;48.838;10.112;2023-04-25T01:46:42;2.25;;;1.15;;
17761;SDS011;9005;48.838;10.112;2023-04-25T01:49:10;1.15;;;1.00;;
17761;SDS011;9005;48.838;10.112;2023-04-25T01:51:37;2.55;;;0.88;;
17761;SDS011;9005;48.838;10.112;2023-04-25T01:54:04;1.05;;;0.88;;
17761;SDS011;9005;48.838;10.112;2023-04-25T01:56:32;1.05;;;0.73;;
17761;SDS011;9005;48.838;10.112;2023-04-25T01:58:59;1.67;;;1.10;;
17761;SDS011;9005;48.838;10.112;2023-04-25T02:01:26;1.90;;;0.80;;
17761;SDS011;9005;48.838;10.112;2023-04-25T02:03:53;1.02;;;0.88;;
17761;SDS011;9005;48.838;10.112;2023-04-25T02:06:21;0.95;;;0.70;;
17761;SDS011;9005;48.838;10.112;2023-04-25T02:08:48;1.27;;;0.60;;
17761;SDS011;9005;48.838;10.112;2023-04-25T02:11:15;0.77;;;0.75;;
17761;SDS011;9005;48.838;10.112;2023-04-25T02:13:43;1.33;;;0.70;;
17761;SDS011;9005;48.838;10.112;2023-04-25T02:16:10;0.93;;;0.93;;
17761;SDS011;9005;48.838;10.112;2023-04-25T02:18:38;0.90;;;0.80;;
17761;SDS011;9005;48.838;10.112;2023-04-25T02:21:05;0.95;;;0.75;;
17761;SDS011;9005;48.838;10.112;2023-04-25T02:23:32;1.10;;;0.80;;
17761;SDS011;9005;48.838;10.112;2023-04-25T02:25:59;1.33;;;0.63;;
17761;SDS011;9005;48.838;10.112;2023-04-25T02:28:26;0.95;;;0.77;;
17761;SDS011;9005;48.838;10.112;2023-04-25T02:30:54;0.68;;;0.68;;
17761;SDS011;9005;48.838;10.112;2023-04-25T02:33:21;0.60;;;0.60;;
17761;SDS011;9005;48.838;10.112;2023-04-25T02:35:48;2.80;;;0.88;;
17761;SDS011;9005;48.838;10.112;2023-04-25T02:38:15;1.13;;;1.00;;
17761;SDS011;9005;48.838;10.112;2023-04-25T02:40:43;1.45;;;0.80;;
17761;SDS011;9005;48.838;10.112;2023-04-25T02:43:10;0.75;;;0.70;;
17761;SDS011;9005;48.838;10.112;2023-04-25T02:45:37;1.05;;;0.93;;
17761;SDS011;9005;48.838;10.112;2023-04-25T02:48:05;1.40;;;0.93;;
17761;SDS011;9005;48.838;10.112;2023-04-25T02:50:33;0.73;;;0.73;;
17761;SDS011;9005;48.838;10.112;2023-04-25T02:53:00;0.80;;;0.80;;
17761;SDS011;9005;48.838;10.112;2023-04-25T02:55:27;2.40;;;0.98;;
17761;SDS011;9005;48.838;10.112;2023-04-25T02:57:54;2.20;;;1.40;;
17761;SDS011;9005;48.838;10.112;2023-04-25T03:00:21;1.13;;;0.80;;
17761;SDS011;9005;48.838;10.112;2023-04-25T03:02:48;1.23;;;0.77;;
17761;SDS011;9005;48.838;10.112;2023-04-25T03:05:17;3.25;;;0.85;;
17761;SDS011;9005;48.838;10.112;2023-04-25T03:07:44;0.82;;;0.82;;
17761;SDS011;9005;48.838;10.112;2023-04-25T03:10:11;2.88;;;1.00;;
17761;SDS011;9005;48.838;10.112;2023-04-25T03:12:38;0.80;;;0.80;;
17761;SDS011;9005;48.838;10.112;2023-04-25T03:15:06;2.40;;;0.85;;
17761;SDS011;9005;48.838;10.112;2023-04-25T03:17:33;1.08;;;0.70;;
17761;SDS011;9005;48.838;10.112;2023-04-25T03:20:00;1.20;;;1.00;;
17761;SDS011;9005;48.838;10.112;2023-04-25T03:22:30;2.17;;;1.50;;
17761;SDS011;9005;48.838;10.112;2023-04-25T03:24:57;2.03;;;1.10;;
17761;SDS011;9005;48.838;10.112;2023-04-25T03:27:24;1.00;;;0.80;;
17761;SDS011;9005;48.838;10.112;2023-04-25T03:29:51;0.95;;;0.90;;
17761;SDS011;9005;48.838;10.112;2023-04-25T03:32:18;1.85;;;0.80;;
17761;SDS011;9005;48.838;10.112;2023-04-25T03:34:45;3.50;;;1.13;;
17761;SDS011;9005;48.838;10.112;2023-04-25T03:37:12;1.67;;;1.02;;
17761;SDS011;9005;48.838;10.112;2023-04-25T03:39:41;2.25;;;1.75;;
17761;SDS011;9005;48.838;10.112;2023-04-25T03:42:08;1.15;;;1.00;;
17761;SDS011;9005;48.838;10.112;2023-04-25T03:44:35;2.38;;;1.08;;
17761;SDS011;9005;48.838;10.112;2023-04-25T03:47:02;2.40;;;1.10;;
17761;SDS011;9005;48.838;10.112;2023-04-25T03:49:30;1.33;;;1.00;;
17761;SDS011;9005;48.838;10.112;2023-04-25T03:51:57;2.25;;;1.02;;
17761;SDS011;9005;48.838;10.112;2023-04-25T03:54:25;2.15;;;1.70;;
17761;SDS011;9005;48.838;10.112;2023-04-25T03:56:53;1.00;;;0.90;;
17761;SDS011;9005;48.838;10.112;2023-04-25T03:59:20;1.48;;;0.93;;
17761;SDS011;9005;48.838;10.112;2023-04-25T04:01:47;1.60;;;1.33;;
17761;SDS011;9005;48.838;10.112;2023-04-25T04:04:14;3.00;;;1.30;;
17761;SDS011;9005;48.838;10.112;2023-04-25T04:06:41;2.53;;;1.00;;
17761;SDS011;9005;48.838;10.112;2023-04-25T04:09:08;3.30;;;1.27;;
17761;SDS011;9005;48.838;10.112;2023-04-25T04:11:36;1.65;;;1.23;;
17761;SDS011;9005;48.838;10.112;2023-04-25T04:14:04;1.40;;;1.30;;
17761;SDS011;9005;48.838;10.112;2023-04-25T04:16:31;1.20;;;1.10;;
17761;SDS011;9005;48.838;10.112;2023-04-25T04:18:58;2.22;;;1.00;;
17761;SDS011;9005;48.838;10.112;2023-04-25T04:21:26;2.17;;;0.80;;
17761;SDS011;9005;48.838;10.112;2023-04-25T04:23:53;3.53;;;1.48;;
17761;SDS011;9005;48.838;10.112;2023-04-25T04:26:20;2.15;;;1.45;;
17761;SDS011;9005;48.838;10.112;2023-04-25T04:28:49;3.10;;;1.23;;
17761;SDS011;9005;48.838;10.112;2023-04-25T04:31:18;1.88;;;1.40;;
17761;SDS011;9005;48.838;10.112;2023-04-25T04:33:45;1.25;;;1.10;;
17761;SDS011;9005;48.838;10.112;2023-04-25T04:36:12;1.23;;;0.90;;
17761;SDS011;9005;48.838;10.112;2023-04-25T04:38:40;1.85;;;1.00;;
17761;SDS011;9005;48.838;10.112;2023-04-25T04:41:08;1.48;;;1.00;;
17761;SDS011;9005;48.838;10.112;2023-04-25T04:43:34;1.33;;;1.10;;
17761;SDS011;9005;48.838;10.112;2023-04-25T04:46:02;2.28;;;1.10;;
17761;SDS011;9005;48.838;10.112;2023-04-25T04:48:32;1.67;;;1.05;;
17761;SDS011;9005;48.838;10.112;2023-04-25T04:50:59;1.88;;;1.10;;
17761;SDS011;9005;48.838;10.112;2023-04-25T04:53:26;2.13;;;1.02;;
17761;SDS011;9005;48.838;10.112;2023-04-25T04:55:53;2.53;;;1.10;;
17761;SDS011;9005;48.838;10.112;2023-04-25T04:58:21;1.08;;;1.00;;
17761;SDS011;9005;48.838;10.112;2023-04-25T05:00:48;3.10;;;1.10;;
17761;SDS011;9005;48.838;10.112;2023-04-25T05:03:15;1.58;;;1.20;;
17761;SDS011;9005;48.838;10.112;2023-04-25T05:05:44;1.60;;;1.10;;
17761;SDS011;9005;48.838;10.112;2023-04-25T05:08:11;2.78;;;1.65;;
17761;SDS011;9005;48.838;10.112;2023-04-25T05:10:38;2.22;;;1.10;;
17761;SDS011;9005;48.838;10.112;2023-04-25T05:13:05;1.77;;;0.90;;
17761;SDS011;9005;48.838;10.112;2023-04-25T05:15:32;1.25;;;1.10;;
17761;SDS011;9005;48.838;10.112;2023-04-25T05:17:59;1.83;;;1.05;;
17761;SDS011;9005;48.838;10.112;2023-04-25T05:20:26;2.70;;;1.67;;
17761;SDS011;9005;48.838;10.112;2023-04-25T05:22:55;1.50;;;1.15;;
17761;SDS011;9005;48.838;10.112;2023-04-25T05:25:21;5.00;;;1.67;;
17761;SDS011;9005;48.838;10.112;2023-04-25T05:27:49;1.58;;;1.40;;
17761;SDS011;9005;48.838;10.112;2023-04-25T05:30:17;1.77;;;1.13;;
17761;SDS011;9005;48.838;10.112;2023-04-25T05:32:44;1.88;;;1.17;;
17761;SDS011;9005;48.838;10.112;2023-04-25T05:35:11;1.30;;;1.20;;
17761;SDS011;9005;48.838;10.112;2023-04-25T05:37:38;1.40;;;1.10;;
17761;SDS011;9005;48.838;10.112;2023-04-25T05:40:08;2.47;;;1.10;;
17761;SDS011;9005;48.838;10.112;2023-04-25T05:42:35;3.80;;;1.35;;
17761;SDS011;9005;48.838;10.112;2023-04-25T05:45:02;2.75;;;1.58;;
17761;SDS011;9005;48.838;10.112;2023-04-25T05:47:29;2.05;;;1.13;;
17761;SDS011;9005;48.838;10.112;2023-04-25T05:49:56;1.38;;;0.80;;
17761;SDS011;9005;48.838;10.112;2023-04-25T05:52:23;1.13;;;1.00;;
17761;SDS011;9005;48.838;10.112;2023-04-25T05:54:50;1.40;;;1.00;;
17761;SDS011;9005;48.838;10.112;2023-04-25T05:57:20;2.10;;;1.13;;
17761;SDS011;9005;48.838;10.112;2023-04-25T05:59:47;1.85;;;1.25;;
17761;SDS011;9005;48.838;10.112;2023-04-25T06:02:14;2.25;;;1.10;;
17761;SDS011;9005;48.838;10.112;2023-04-25T06:04:41;1.50;;;1.40;;
17761;SDS011;9005;48.838;10.112;2023-04-25T06:07:08;1.35;;;1.23;;
17761;SDS011;9005;48.838;10.112;2023-04-25T06:09:35;1.95;;;1.15;;
17761;SDS011;9005;48.838;10.112;2023-04-25T06:12:04;0.70;;;0.70;;
17761;SDS011;9005;48.838;10.112;2023-04-25T06:14:32;1.13;;;0.93;;
17761;SDS011;9005;48.838;10.112;2023-04-25T06:17:00;1.33;;;0.93;;
17761;SDS011;9005;48.838;10.112;2023-04-25T06:19:31;1.20;;;1.08;;
17761;SDS011;9005;48.838;10.112;2023-04-25T06:21:58;2.50;;;0.98;;
17761;SDS011;9005;48.838;10.112;2023-04-25T06:24:25;1.38;;;1.25;;
17761;SDS011;9005;48.838;10.112;2023-04-25T06:26:52;0.70;;;0.70;;
17761;SDS011;9005;48.838;10.112;2023-04-25T06:29:20;1.88;;;1.05;;
17761;SDS011;9005;48.838;10.112;2023-04-25T06:31:48;2.25;;;1.10;;
17761;SDS011;9005;48.838;10.112;2023-04-25T06:34:16;2.78;;;1.17;;
17761;SDS011;9005;48.838;10.112;2023-04-25T06:36:43;3.42;;;1.17;;
17761;SDS011;9005;48.838;10.112;2023-04-25T06:39:10;2.83;;;1.00;;
17761;SDS011;9005;48.838;10.112;2023-04-25T06:41:37;1.35;;;1.00;;
17761;SDS011;9005;48.838;10.112;2023-04-25T06:44:04;1.52;;;1.33;;
17761;SDS011;9005;48.838;10.112;2023-04-25T06:46:31;0.88;;;0.88;;
17761;SDS011;9005;48.838;10.112;2023-04-25T06:49:00;1.40;;;1.23;;
17761;SDS011;9005;48.838;10.112;2023-04-25T06:51:27;1.83;;;1.08;;
17761;SDS011;9005;48.838;10.112;2023-04-25T06:53:55;1.55;;;1.17;;
17761;SDS011;9005;48.838;10.112;2023-04-25T06:56:22;2.80;;;0.95;;
17761;SDS011;9005;48.838;10.112;2023-04-25T06:58:49;1.05;;;1.00;;
17761;SDS011;9005;48.838;10.112;2023-04-25T07:01:16;2.45;;;1.20;;
17761;SDS011;9005;48.838;10.112;2023-04-25T07:03:43;4.68;;;1.73;;
17761;SDS011;9005;48.838;10.112;2023-04-25T07:06:12;2.88;;;1.10;;
17761;SDS011;9005;48.838;10.112;2023-04-25T07:08:39;2.13;;;1.00;;
17761;SDS011;9005;48.838;10.112;2023-04-25T07:11:06;2.60;;;1.40;;
17761;SDS011;9005;48.838;10.112;2023-04-25T07:13:33;1.50;;;1.33;;
17761;SDS011;9005;48.838;10.112;2023-04-25T07:16:01;1.90;;;1.17;;
17761;SDS011;9005;48.838;10.112;2023-04-25T07:18:28;2.28;;;1.00;;
17761;SDS011;9005;48.838;10.112;2023-04-25T07:20:56;2.45;;;1.20;;
17761;SDS011;9005;48.838;10.112;2023-04-25T07:23:24;1.75;;;1.30;;
17761;SDS011;9005;48.838;10.112;2023-04-25T07:25:51;8.13;;;1.73;;
17761;SDS011;9005;48.838;10.112;2023-04-25T07:28:19;1.60;;;1.50;;
17761;SDS011;9005;48.838;10.112;2023-04-25T07:30:46;1.52;;;1.42;;
17761;SDS011;9005;48.838;10.112;2023-04-25T07:33:13;1.65;;;1.50;;
17761;SDS011;9005;48.838;10.112;2023-04-25T07:35:40;1.60;;;1.40;;
17761;SDS011;9005;48.838;10.112;2023-04-25T07:38:07;1.83;;;1.55;;
17761;SDS011;9005;48.838;10.112;2023-04-25T07:40:36;1.80;;;1.30;;
17761;SDS011;9005;48.838;10.112;2023-04-25T07:43:03;1.15;;;1.10;;
17761;SDS011;9005;48.838;10.112;2023-04-25T07:45:30;2.63;;;1.52;;
17761;SDS011;9005;48.838;10.112;2023-04-25T07:47:58;1.40;;;1.17;;
17761;SDS011;9005;48.838;10.112;2023-04-25T07:50:25;2.63;;;1.60;;
17761;SDS011;9005;48.838;10.112;2023-04-25T07:52:52;1.52;;;1.13;;
17761;SDS011;9005;48.838;10.112;2023-04-25T07:55:19;2.78;;;1.30;;
17761;SDS011;9005;48.838;10.112;2023-04-25T07:57:47;1.58;;;1.20;;
17761;SDS011;9005;48.838;10.112;2023-04-25T08:00:15;1.40;;;1.30;;
17761;SDS011;9005;48.838;10.112;2023-04-25T08:02:42;1.40;;;1.00;;
17761;SDS011;9005;48.838;10.112;2023-04-25T08:05:09;2.45;;;2.00;;
17761;SDS011;9005;48.838;10.112;2023-04-25T08:07:39;1.40;;;1.10;;
17761;SDS011;9005;48.838;10.112;2023-04-25T08:10:07;3.47;;;1.85;;
17761;SDS011;9005;48.838;10.112;2023-04-25T08:12:34;2.05;;;1.35;;
17761;SDS011;9005;48.838;10.112;2023-04-25T08:15:04;1.90;;;1.27;;
17761;SDS011;9005;48.838;10.112;2023-04-25T08:17:32;1.42;;;1.10;;
17761;SDS011;9005;48.838;10.112;2023-04-25T08:19:59;6.70;;;1.35;;
17761;SDS011;9005;48.838;10.112;2023-04-25T08:22:30;1.10;;;1.00;;
17761;SDS011;9005;48.838;10.112;2023-04-25T08:24:57;1.70;;;1.00;;
17761;SDS011;9005;48.838;10.112;2023-04-25T08:27:24;1.55;;;1.45;;
17761;SDS011;9005;48.838;10.112;2023-04-25T08:29:51;1.10;;;1.00;;
17761;SDS011;9005;48.838;10.112;2023-04-25T08:32:20;1.42;;;1.10;;
17761;SDS011;9005;48.838;10.112;2023-04-25T08:34:47;1.15;;;1.05;;
17761;SDS011;9005;48.838;10.112;2023-04-25T08:37:13;1.23;;;1.08;;
17761;SDS011;9005;48.838;10.112;2023-04-25T08:39:40;0.80;;;0.80;;
17761;SDS011;9005;48.838;10.112;2023-04-25T08:42:07;1.05;;;0.90;;
17761;SDS011;9005;48.838;10.112;2023-04-25T08:44:35;2.58;;;0.90;;
17761;SDS011;9005;48.838;10.112;2023-04-25T08:47:02;1.08;;;1.00;;
17761;SDS011;9005;48.838;10.112;2023-04-25T08:49:31;0.80;;;0.80;;
17761;SDS011;9005;48.838;10.112;2023-04-25T08:51:59;1.23;;;1.08;;
17761;SDS011;9005;48.838;10.112;2023-04-25T08:54:27;1.00;;;1.00;;
17761;SDS011;9005;48.838;10.112;2023-04-25T08:56:56;1.00;;;0.88;;
17761;SDS011;9005;48.838;10.112;2023-04-25T08:59:23;2.25;;;1.13;;
17761;SDS011;9005;48.838;10.112;2023-04-25T09:01:50;0.80;;;0.80;;
17761;SDS011;9005;48.838;10.112;2023-04-25T09:04:17;1.25;;;1.10;;
17761;SDS011;9005;48.838;10.112;2023-04-25T09:06:46;0.90;;;0.90;;
17761;SDS011;9005;48.838;10.112;2023-04-25T09:09:13;1.27;;;0.88;;
17761;SDS011;9005;48.838;10.112;2023-04-25T09:11:40;1.13;;;1.00;;
17761;SDS011;9005;48.838;10.112;2023-04-25T09:14:11;1.20;;;0.90;;
17761;SDS011;9005;48.838;10.112;2023-04-25T09:19:25;2.15;;;0.80;;
17761;SDS011;9005;48.838;10.112;2023-04-25T09:21:54;0.70;;;0.70;;
17761;SDS011;9005;48.838;10.112;2023-04-25T09:24:29;1.10;;;0.90;;
17761;SDS011;9005;48.838;10.112;2023-04-25T09:27:02;0.65;;;0.60;;
17761;SDS011;9005;48.838;10.112;2023-04-25T09:29:30;1.55;;;0.80;;
17761;SDS011;9005;48.838;10.112;2023-04-25T09:32:14;1.20;;;0.70;;
17761;SDS011;9005;48.838;10.112;2023-04-25T09:34:43;0.80;;;0.80;;
17761;SDS011;9005;48.838;10.112;2023-04-25T09:37:16;2.65;;;0.82;;
17761;SDS011;9005;48.838;10.112;2023-04-25T09:39:44;2.17;;;1.35;;
17761;SDS011;9005;48.838;10.112;2023-04-25T09:42:12;1.02;;;0.90;;
17761;SDS011;9005;48.838;10.112;2023-04-25T09:44:41;2.00;;;1.00;;
17761;SDS011;9005;48.838;10.112;2023-04-25T09:47:10;1.15;;;1.05;;
17761;SDS011;9005;48.838;10.112;2023-04-25T09:49:39;0.70;;;0.70;;
17761;SDS011;9005;48.838;10.112;2023-04-25T09:52:07;1.85;;;1.65;;
17761;SDS011;9005;48.838;10.112;2023-04-25T09:54:36;1.45;;;0.90;;
17761;SDS011;9005;48.838;10.112;2023-04-25T09:57:06;1.20;;;1.10;;
17761;SDS011;9005;48.838;10.112;2023-04-25T09:59:38;0.95;;;0.90;;
17761;SDS011;9005;48.838;10.112;2023-04-25T10:02:08;0.80;;;0.80;;
17761;SDS011;9005;48.838;10.112;2023-04-25T10:04:36;1.30;;;1.20;;
17761;SDS011;9005;48.838;10.112;2023-04-25T10:07:05;0.95;;;0.85;;
17761;SDS011;9005;48.838;10.112;2023-04-25T10:09:32;0.93;;;0.90;;
17761;SDS011;9005;48.838;10.112;2023-04-25T10:12:01;1.70;;;1.02;;
17761;SDS011;9005;48.838;10.112;2023-04-25T10:14:29;1.10;;;1.00;;
17761;SDS011;9005;48.838;10.112;2023-04-25T10:17:02;0.80;;;0.80;;
17761;SDS011;9005;48.838;10.112;2023-04-25T10:19:29;1.00;;;0.93;;
17761;SDS011;9005;48.838;10.112;2023-04-25T10:21:58;2.40;;;1.05;;
17761;SDS011;9005;48.838;10.112;2023-04-25T10:24:31;1.25;;;1.00;;
17761;SDS011;9005;48.838;10.112;2023-04-25T10:26:58;2.17;;;1.27;;
17761;SDS011;9005;48.838;10.112;2023-04-25T10:29:28;2.17;;;1.20;;
17761;SDS011;9005;48.838;10.112;2023-04-25T10:31:55;2.13;;;1.40;;
17761;SDS011;9005;48.838;10.112;2023-04-25T10:34:37;3.90;;;1.00;;
17761;SDS011;9005;48.838;10.112;2023-04-25T10:37:05;3.03;;;1.30;;
17761;SDS011;9005;48.838;10.112;2023-04-25T10:39:35;2.95;;;1.60;;
17761;SDS011;9005;48.838;10.112;2023-04-25T10:42:03;2.65;;;1.35;;
17761;SDS011;9005;48.838;10.112;2023-04-25T10:44:32;1.95;;;1.75;;
17761;SDS011;9005;48.838;10.112;2023-04-25T10:47:00;1.70;;;1.60;;
17761;SDS011;9005;48.838;10.112;2023-04-25T10:49:28;4.22;;;1.92;;
17761;SDS011;9005;48.838;10.112;2023-04-25T10:52:16;1.67;;;1.38;;
17761;SDS011;9005;48.838;10.112;2023-04-25T10:54:48;1.75;;;1.30;;
17761;SDS011;9005;48.838;10.112;2023-04-25T10:57:30;2.38;;;1.50;;
17761;SDS011;9005;48.838;10.112;2023-04-25T11:00:06;3.42;;;2.25;;
17761;SDS011;9005;48.838;10.112;2023-04-25T11:02:40;2.40;;;1.63;;
17761;SDS011;9005;48.838;10.112;2023-04-25T11:05:10;2.13;;;1.75;;
17761;SDS011;9005;48.838;10.112;2023-04-25T11:07:44;2.42;;;2.08;;
17761;SDS011;9005;48.838;10.112;2023-04-25T11:10:16;1.80;;;1.70;;
17761;SDS011;9005;48.838;10.112;2023-04-25T11:12:44;1.73;;;1.63;;
17761;SDS011;9005;48.838;10.112;2023-04-25T11:15:12;1.48;;;1.38;;
17761;SDS011;9005;48.838;10.112;2023-04-25T11:17:39;2.22;;;1.63;;
17761;SDS011;9005;48.838;10.112;2023-04-25T11:20:07;2.78;;;1.75;;
17761;SDS011;9005;48.838;10.112;2023-04-25T11:22:37;2.05;;;1.85;;
17761;SDS011;9005;48.838;10.112;2023-04-25T11:25:05;1.77;;;1.67;;
17761;SDS011;9005;48.838;10.112;2023-04-25T11:27:33;2.20;;;2.00;;
17761;SDS011;9005;48.838;10.112;2023-04-25T11:30:09;2.97;;;1.67;;
17761;SDS011;9005;48.838;10.112;2023-04-25T11:32:38;1.88;;;1.60;;
17761;SDS011;9005;48.838;10.112;2023-04-25T11:35:06;3.50;;;1.80;;
17761;SDS011;9005;48.838;10.112;2023-04-25T11:37:33;1.70;;;1.55;;
17761;SDS011;9005;48.838;10.112;2023-04-25T11:40:00;2.50;;;1.42;;
17761;SDS011;9005;48.838;10.112;2023-04-25T11:42:27;1.85;;;1.75;;
17761;SDS011;9005;48.838;10.112;2023-04-25T11:44:53;3.00;;;1.50;;
17761;SDS011;9005;48.838;10.112;2023-04-25T11:47:21;2.22;;;1.55;;
17761;SDS011;9005;48.838;10.112;2023-04-25T11:49:56;2.55;;;1.60;;
17761;SDS011;9005;48.838;10.112;2023-04-25T11:52:24;1.80;;;1.70;;
17761;SDS011;9005;48.838;10.112;2023-04-25T11:54:51;1.92;;;1.70;;
17761;SDS011;9005;48.838;10.112;2023-04-25T11:57:18;1.80;;;1.70;;
17761;SDS011;9005;48.838;10.112;2023-04-25T11:59:45;1.60;;;1.30;;
17761;SDS011;9005;48.838;10.112;2023-04-25T12:02:23;1.45;;;1.35;;
17761;SDS011;9005;48.838;10.112;2023-04-25T12:04:51;1.17;;;1.15;;
17761;SDS011;9005;48.838;10.112;2023-04-25T12:07:19;1.23;;;1.20;;
17761;SDS011;9005;48.838;10.112;2023-04-25T12:09:51;0.77;;;0.77;;
17761;SDS011;9005;48.838;10.112;2023-04-25T12:12:18;0.90;;;0.90;;
17761;SDS011;9005;48.838;10.112;2023-04-25T12:14:46;1.73;;;1.33;;
17761;SDS011;9005;48.838;10.112;2023-04-25T12:17:13;1.40;;;1.30;;
17761;SDS011;9005;48.838;10.112;2023-04-25T12:19:40;1.40;;;1.30;;
17761;SDS011;9005;48.838;10.112;2023-04-25T12:22:20;1.95;;;1.40;;
17761;SDS011;9005;48.838;10.112;2023-04-25T12:24:48;1.58;;;1.48;;
17761;SDS011;9005;48.838;10.112;2023-04-25T12:27:15;1.85;;;1.55;;
17761;SDS011;9005;48.838;10.112;2023-04-25T12:29:50;1.77;;;1.67;;
17761;SDS011;9005;48.838;10.112;2023-04-25T12:32:17;2.05;;;1.83;;
17761;SDS011;9005;48.838;10.112;2023-04-25T12:34:44;1.95;;;1.80;;
17761;SDS011;9005;48.838;10.112;2023-04-25T12:37:11;1.88;;;1.70;;
17761;SDS011;9005;48.838;10.112;2023-04-25T12:39:39;1.63;;;1.52;;
17761;SDS011;9005;48.838;10.112;2023-04-25T12:42:05;2.15;;;1.80;;
17761;SDS011;9005;48.838;10.112;2023-04-25T12:44:36;1.60;;;1.50;;
17761;SDS011;9005;48.838;10.112;2023-04-25T12:47:03;1.52;;;1.40;;
17761;SDS011;9005;48.838;10.112;2023-04-25T12:49:30;1.98;;;1.30;;
17761;SDS011;9005;48.838;10.112;2023-04-25T12:51:57;1.75;;;1.60;;
17761;SDS011;9005;48.838;10.112;2023-04-25T12:54:24;1.33;;;1.23;;
17761;SDS011;9005;48.838;10.112;2023-04-25T12:56:52;1.30;;;1.15;;
17761;SDS011;9005;48.838;10.112;2023-04-25T12:59:19;1.40;;;1.30;;
17761;SDS011;9005;48.838;10.112;2023-04-25T13:01:46;1.95;;;1.30;;
17761;SDS011;9005;48.838;10.112;2023-04-25T13:04:13;1.30;;;1.20;;
17761;SDS011;9005;48.838;10.112;2023-04-25T13:06:40;1.52;;;1.42;;
17761;SDS011;9005;48.838;10.112;2023-04-25T13:09:07;1.50;;;1.27;;
17761;SDS011;9005;48.838;10.112;2023-04-25T13:11:34;1.30;;;1.20;;
17761;SDS011;9005;48.838;10.112;2023-04-25T13:14:02;2.95;;;1.33;;
17761;SDS011;9005;48.838;10.112;2023-04-25T13:16:29;2.42;;;0.90;;
17761;SDS011;9005;48.838;10.112;2023-04-25T13:18:56;0.82;;;0.82;;
17761;SDS011;9005;48.838;10.112;2023-04-25T13:21:22;1.13;;;1.02;;
17761;SDS011;9005;48.838;10.112;2023-04-25T13:23:49;1.00;;;1.00;;
17761;SDS011;9005;48.838;10.112;2023-04-25T13:26:16;1.10;;;0.95;;
17761;SDS011;9005;48.838;10.112;2023-04-25T13:28:43;1.27;;;1.17;;
17761;SDS011;9005;48.838;10.112;2023-04-25T13:31:11;0.95;;;0.88;;
17761;SDS011;9005;48.838;10.112;2023-04-25T13:33:38;1.52;;;1.20;;
17761;SDS011;9005;48.838;10.112;2023-04-25T13:36:04;1.50;;;1.40;;
17761;SDS011;9005;48.838;10.112;2023-04-25T13:38:31;1.65;;;1.55;;
17761;SDS011;9005;48.838;10.112;2023-04-25T13:40:58;1.30;;;1.20;;
17761;SDS011;9005;48.838;10.112;2023-04-25T13:43:25;1.70;;;1.60;;
17761;SDS011;9005;48.838;10.112;2023-04-25T13:45:52;3.17;;;1.73;;
17761;SDS011;9005;48.838;10.112;2023-04-25T13:48:20;1.92;;;1.65;;
17761;SDS011;9005;48.838;10.112;2023-04-25T13:50:47;2.40;;;1.80;;
17761;SDS011;9005;48.838;10.112;2023-04-25T13:53:14;1.52;;;1.42;;
17761;SDS011;9005;48.838;10.112;2023-04-25T13:55:41;3.08;;;1.80;;
17761;SDS011;9005;48.838;10.112;2023-04-25T13:58:07;2.75;;;1.52;;
17761;SDS011;9005;48.838;10.112;2023-04-25T14:00:35;1.50;;;1.40;;
17761;SDS011;9005;48.838;10.112;2023-04-25T14:03:04;3.45;;;1.48;;
17761;SDS011;9005;48.838;10.112;2023-04-25T14:05:33;1.60;;;1.50;;
17761;SDS011;9005;48.838;10.112;2023-04-25T14:08:04;1.63;;;1.30;;
17761;SDS011;9005;48.838;10.112;2023-04-25T14:10:32;2.78;;;1.50;;
17761;SDS011;9005;48.838;10.112;2023-04-25T14:12:59;1.70;;;1.60;;
17761;SDS011;9005;48.838;10.112;2023-04-25T14:15:27;1.65;;;1.45;;
17761;SDS011;9005;48.838;10.112;2023-04-25T14:17:55;0.98;;;0.50;;
17761;SDS011;9005;48.838;10.112;2023-04-25T14:20:22;0.40;;;0.40;;
17761;SDS011;9005;48.838;10.112;2023-04-25T14:22:50;0.60;;;0.52;;
17761;SDS011;9005;48.838;10.112;2023-04-25T14:25:18;1.30;;;0.70;;
17761;SDS011;9005;48.838;10.112;2023-04-25T14:27:45;1.20;;;0.50;;
17761;SDS011;9005;48.838;10.112;2023-04-25T14:30:14;0.47;;;0.47;;
17761;SDS011;9005;48.838;10.112;2023-04-25T14:32:42;0.77;;;0.50;;
17761;SDS011;9005;48.838;10.112;2023-04-25T14:35:09;1.58;;;0.63;;
17761;SDS011;9005;48.838;10.112;2023-04-25T14:37:36;2.38;;;0.65;;
17761;SDS011;9005;48.838;10.112;2023-04-25T14:40:04;0.50;;;0.50;;
17761;SDS011;9005;48.838;10.112;2023-04-25T14:42:33;0.70;;;0.70;;
17761;SDS011;9005;48.838;10.112;2023-04-25T14:45:00;1.33;;;0.60;;
17761;SDS011;9005;48.838;10.112;2023-04-25T14:47:27;2.63;;;0.60;;
17761;SDS011;9005;48.838;10.112;2023-04-25T14:49:54;0.85;;;0.50;;
17761;SDS011;9005;48.838;10.112;2023-04-25T14:52:20;0.65;;;0.60;;
17761;SDS011;9005;48.838;10.112;2023-04-25T14:54:47;0.60;;;0.60;;